Time;durP1;ratioP1;P1;durP2;ratioP2;P2;SDS_P1;SDS_P2;PMS_P1;PMS_P2;Temp;Humidity;BMP_temperature;BMP_pressure;BME280_temperature;BME280_humidity;BME280_pressure;Samples;Min_cycle;Max_cycle;Signal;HPM_P1;HPM_P2
2023/09/16 00:02:20;;;;;;;19.33;17.40;;;;;;;18.80;100.00;95210.69;4968719;28;20031;-96
2023/09/16 00:04:46;;;;;;;18.48;16.90;;;;;;;18.19;100.00;95229.66;4970076;28;20027;-95
2023/09/16 00:07:13;;;;;;;18.63;16.92;;;;;;;18.63;100.00;95223.53;4958555;28;20393;-95
2023/09/16 00:09:40;;;;;;;17.42;15.82;;;;;;;18.41;100.00;95212.56;4950611;29;20183;-94
2023/09/16 00:12:05;;;;;;;18.08;16.15;;;;;;;18.19;100.00;95236.72;4943411;29;20486;-93
2023/09/16 00:14:31;;;;;;;22.98;18.02;;;;;;;18.11;100.00;95271.84;4969187;28;20034;-83
2023/09/16 00:17:00;;;;;;;23.40;18.85;;;;;;;18.01;100.00;95320.50;4951704;28;20026;-85
2023/09/16 00:19:25;;;;;;;24.08;19.27;;;;;;;18.16;100.00;95345.44;4961490;28;20178;-88
2023/09/16 00:21:51;;;;;;;26.13;21.02;;;;;;;18.26;100.00;95372.03;4962791;28;20121;-88
2023/09/16 00:24:18;;;;;;;22.38;19.63;;;;;;;18.34;100.00;95377.03;4961665;28;20029;-85
2023/09/16 00:26:43;;;;;;;23.27;21.08;;;;;;;18.45;100.00;95375.59;4940813;29;20050;-88
2023/09/16 00:29:09;;;;;;;24.80;21.80;;;;;;;18.39;100.00;95408.72;4959008;28;20473;-87
2023/09/16 00:31:36;;;;;;;23.60;21.60;;;;;;;18.53;100.00;95419.16;4945338;28;20027;-88
2023/09/16 00:34:02;;;;;;;26.85;24.38;;;;;;;18.50;100.00;95398.59;4954140;28;20042;-85
2023/09/16 00:36:28;;;;;;;28.38;25.95;;;;;;;18.28;100.00;95414.59;4956443;28;20039;-86
2023/09/16 00:38:53;;;;;;;30.33;27.50;;;;;;;18.10;100.00;95419.69;4955644;28;20497;-86
2023/09/16 00:41:18;;;;;;;28.17;25.60;;;;;;;18.19;100.00;95423.69;4954813;28;20143;-87
2023/09/16 00:43:44;;;;;;;27.08;24.50;;;;;;;18.30;100.00;95438.00;4944749;28;20038;-86
2023/09/16 00:46:09;;;;;;;26.00;23.55;;;;;;;17.95;100.00;95442.69;4933841;29;20428;-91
2023/09/16 00:48:35;;;;;;;26.58;23.85;;;;;;;18.10;100.00;95445.91;4955024;28;20031;-90
2023/09/16 00:51:01;;;;;;;24.38;21.88;;;;;;;18.03;100.00;95449.53;4962055;28;20042;-86
2023/09/16 00:53:27;;;;;;;25.23;22.40;;;;;;;18.03;100.00;95444.31;4943883;28;20046;-86
2023/09/16 00:55:52;;;;;;;26.70;24.15;;;;;;;17.94;100.00;95446.34;4979271;23;20055;-88
2023/09/16 00:58:18;;;;;;;23.98;21.75;;;;;;;17.90;100.00;95460.84;4964269;28;20531;-89
2023/09/16 01:00:45;;;;;;;23.75;21.55;;;;;;;17.89;100.00;95454.00;4966286;28;20388;-90
2023/09/16 01:03:11;;;;;;;24.15;22.00;;;;;;;18.12;100.00;95457.00;4961996;28;20034;-88
2023/09/16 01:05:37;;;;;;;23.88;21.67;;;;;;;18.19;100.00;95449.13;4952631;28;20062;-88
2023/09/16 01:08:03;;;;;;;25.48;23.20;;;;;;;18.06;100.00;95442.09;4945200;28;20023;-87
2023/09/16 01:10:28;;;;;;;23.65;21.67;;;;;;;18.13;100.00;95444.69;4945563;28;20027;-87
2023/09/16 01:12:55;;;;;;;24.08;21.85;;;;;;;18.20;100.00;95451.53;4945312;28;20456;-87
2023/09/16 01:15:22;;;;;;;25.95;23.45;;;;;;;18.06;100.00;95457.81;4952449;28;20043;-87
2023/09/16 01:18:19;;;;;;;26.98;24.35;;;;;;;18.00;100.00;95473.53;4944259;28;20019;-86
2023/09/16 01:20:45;;;;;;;28.63;25.92;;;;;;;18.20;100.00;95490.06;4954611;28;20030;-87
2023/09/16 01:23:11;;;;;;;26.83;24.45;;;;;;;18.19;100.00;95496.31;4946797;28;20505;-88
2023/09/16 01:25:37;;;;;;;25.30;22.88;;;;;;;18.11;100.00;95483.44;4943953;28;20028;-85
2023/09/16 01:28:03;;;;;;;25.63;23.33;;;;;;;18.19;100.00;95454.34;4944725;28;20571;-87
2023/09/16 01:30:32;;;;;;;35.50;32.45;;;;;;;17.94;100.00;95477.78;4943864;28;20031;-86
2023/09/16 01:33:06;;;;;;;28.90;26.30;;;;;;;17.96;100.00;95501.97;4954918;28;20019;-87
2023/09/16 01:35:37;;;;;;;27.25;24.98;;;;;;;18.04;100.00;95509.66;4943530;29;20031;-87
2023/09/16 01:38:05;;;;;;;31.70;28.88;;;;;;;17.97;100.00;95508.84;4941146;29;20481;-86
2023/09/16 01:40:30;;;;;;;29.97;27.13;;;;;;;17.95;100.00;95521.31;4942784;29;20039;-87
2023/09/16 01:42:57;;;;;;;35.50;32.38;;;;;;;17.81;100.00;95528.41;4943024;28;20050;-89
2023/09/16 01:45:22;;;;;;;30.10;27.15;;;;;;;17.82;100.00;95534.44;4961012;28;20896;-88
2023/09/16 01:47:48;;;;;;;26.83;24.42;;;;;;;17.79;100.00;95540.88;4954976;28;20118;-85
2023/09/16 01:50:14;;;;;;;31.55;28.17;;;;;;;17.67;100.00;95542.50;4955904;28;20128;-87
2023/09/16 01:52:39;;;;;;;33.33;30.15;;;;;;;17.66;100.00;95558.44;4945355;28;20035;-87
2023/09/16 01:55:05;;;;;;;30.80;28.20;;;;;;;17.64;100.00;95561.22;4942659;28;20058;-88
2023/09/16 01:57:30;;;;;;;32.45;29.23;;;;;;;17.48;100.00;95574.66;4961824;28;20603;-86
2023/09/16 01:59:56;;;;;;;28.23;25.58;;;;;;;17.84;100.00;95572.56;4962923;28;20820;-86
2023/09/16 02:02:21;;;;;;;27.05;24.75;;;;;;;17.82;100.00;95564.06;4967305;28;20033;-87
2023/09/16 02:04:46;;;;;;;27.63;24.70;;;;;;;17.75;100.00;95557.22;4979124;28;20106;-87
2023/09/16 02:07:12;;;;;;;25.58;23.20;;;;;;;17.69;100.00;95537.06;4966982;28;20027;-89
2023/09/16 02:09:37;;;;;;;24.60;22.38;;;;;;;17.71;100.00;95542.91;4966506;28;20417;-85
2023/09/16 02:12:03;;;;;;;24.83;22.65;;;;;;;17.86;100.00;95533.03;4965739;28;20030;-86
2023/09/16 02:14:29;;;;;;;29.90;26.60;;;;;;;17.98;100.00;95509.66;4966193;28;20481;-86
2023/09/16 02:16:54;;;;;;;27.08;24.38;;;;;;;17.83;100.00;95515.91;4967357;28;20441;-86
2023/09/16 02:19:19;;;;;;;32.95;29.70;;;;;;;17.67;100.00;95518.09;4967355;28;20031;-88
2023/09/16 02:21:45;;;;;;;27.75;25.00;;;;;;;17.92;100.00;95513.09;4980854;28;20137;-88
2023/09/16 02:24:10;;;;;;;25.05;22.92;;;;;;;17.96;100.00;95511.66;4967556;28;20043;-87
2023/09/16 02:26:36;;;;;;;34.10;31.13;;;;;;;17.91;100.00;95507.03;4966962;28;20039;-87
2023/09/16 02:29:01;;;;;;;27.75;25.40;;;;;;;17.83;100.00;95508.03;4956334;28;20117;-87
2023/09/16 02:31:26;;;;;;;27.77;25.25;;;;;;;17.81;100.00;95509.25;4963100;28;20030;-88
2023/09/16 02:33:56;;;;;;;26.02;23.40;;;;;;;17.92;100.00;95506.00;4965916;28;20566;-88
2023/09/16 02:36:21;;;;;;;28.40;25.45;;;;;;;17.98;100.00;95517.53;4953069;28;20061;-85
2023/09/16 02:38:48;;;;;;;27.52;24.75;;;;;;;17.98;100.00;95518.31;4964893;28;20023;-84
2023/09/16 02:41:17;;;;;;;24.85;22.55;;;;;;;17.97;100.00;95514.09;4964871;28;20039;-84
2023/09/16 02:43:46;;;;;;;26.73;24.20;;;;;;;17.99;100.00;95514.69;4969160;28;20034;-83
2023/09/16 02:46:12;;;;;;;29.88;26.77;;;;;;;17.93;100.00;95528.59;4980170;28;20034;-83
2023/09/16 02:48:37;;;;;;;25.92;23.58;;;;;;;17.97;100.00;95536.88;4971443;28;20093;-84
2023/09/16 02:51:03;;;;;;;27.20;24.98;;;;;;;17.98;100.00;95546.34;4964410;28;20026;-84
2023/09/16 02:53:29;;;;;;;31.27;28.50;;;;;;;17.92;100.00;95547.16;4965305;28;20117;-84
2023/09/16 02:55:55;;;;;;;24.67;22.42;;;;;;;17.96;100.00;95537.88;4964057;28;20039;-84
2023/09/16 02:58:20;;;;;;;26.63;24.02;;;;;;;17.98;100.00;95536.66;4963305;28;20182;-83
2023/09/16 03:00:47;;;;;;;27.25;24.58;;;;;;;17.96;100.00;95530.81;4963167;28;20042;-82
2023/09/16 03:03:13;;;;;;;28.30;25.88;;;;;;;17.95;100.00;95536.28;4975060;28;20038;-84
2023/09/16 03:05:40;;;;;;;28.55;26.10;;;;;;;17.93;100.00;95539.09;4964936;28;20035;-85
2023/09/16 03:08:06;;;;;;;28.70;25.80;;;;;;;17.81;100.00;95556.44;4963922;28;20070;-91
2023/09/16 03:10:35;;;;;;;28.67;26.25;;;;;;;17.74;100.00;95563.47;4964631;28;20031;-84
2023/09/16 03:13:00;;;;;;;30.60;27.65;;;;;;;17.84;100.00;95561.25;4962267;28;20030;-84
2023/09/16 03:15:26;;;;;;;29.50;26.58;;;;;;;17.80;100.00;95568.72;4963290;28;20508;-83
2023/09/16 03:17:51;;;;;;;29.75;27.27;;;;;;;17.74;100.00;95560.84;4962833;28;20030;-83
2023/09/16 03:20:17;;;;;;;29.77;26.85;;;;;;;17.62;100.00;95567.69;4963023;28;20133;-86
2023/09/16 03:22:42;;;;;;;27.27;24.95;;;;;;;17.59;100.00;95579.38;4963213;28;20583;-85
2023/09/16 03:25:07;;;;;;;30.60;27.73;;;;;;;17.68;100.00;95583.41;4963188;28;20122;-85
2023/09/16 03:27:33;;;;;;;32.85;29.92;;;;;;;17.67;100.00;95580.97;4963196;28;20515;-84
2023/09/16 03:29:58;;;;;;;38.00;34.55;;;;;;;17.44;100.00;95602.25;4962327;28;20031;-85
2023/09/16 03:32:27;;;;;;;30.60;28.00;;;;;;;17.61;100.00;95614.03;4963123;28;20173;-82
2023/09/16 03:34:53;;;;;;;31.30;28.73;;;;;;;17.66;100.00;95608.22;4962956;28;20023;-83
2023/09/16 03:37:18;;;;;;;31.35;28.45;;;;;;;17.73;100.00;95606.38;4962742;28;20512;-83
2023/09/16 03:39:43;;;;;;;30.05;27.17;;;;;;;17.67;100.00;95604.56;4962486;28;20416;-84
2023/09/16 03:42:09;;;;;;;29.25;26.48;;;;;;;17.73;100.00;95601.16;4962433;28;20125;-84
2023/09/16 03:44:34;;;;;;;30.42;27.27;;;;;;;17.62;100.00;95601.75;4976218;28;20031;-85
2023/09/16 03:46:59;;;;;;;33.80;30.27;;;;;;;17.52;100.00;95609.94;4976358;28;20504;-85
2023/09/16 03:49:25;;;;;;;35.53;32.03;;;;;;;17.35;100.00;95599.00;4977057;28;20137;-87
2023/09/16 03:51:50;;;;;;;38.45;33.58;;;;;;;17.42;100.00;95627.03;4962638;28;20070;-85
2023/09/16 03:54:16;;;;;;;36.22;32.33;;;;;;;17.39;100.00;95631.66;4963316;28;20060;-85
2023/09/16 03:56:41;;;;;;;38.17;32.45;;;;;;;17.37;100.00;95632.84;4962445;28;20055;-87
2023/09/16 03:59:07;;;;;;;41.72;33.72;;;;;;;17.39;100.00;95634.28;4963372;28;20030;-85
2023/09/16 04:01:32;;;;;;;34.85;31.13;;;;;;;17.45;100.00;95637.09;4961508;28;20027;-88
2023/09/16 04:03:57;;;;;;;32.72;29.23;;;;;;;17.46;100.00;95633.50;4961629;28;20089;-87
2023/09/16 04:06:23;;;;;;;32.53;29.25;;;;;;;17.54;100.00;95633.31;4962547;28;20609;-87
2023/09/16 04:08:48;;;;;;;30.73;28.00;;;;;;;17.52;100.00;95633.53;4963198;28;20030;-87
2023/09/16 04:11:13;;;;;;;32.08;28.77;;;;;;;17.46;100.00;95638.72;4954658;28;20418;-91
2023/09/16 04:13:39;;;;;;;29.42;26.83;;;;;;;17.49;100.00;95651.44;4975072;28;20468;-90
2023/09/16 04:16:04;;;;;;;27.83;24.98;;;;;;;17.51;100.00;95659.91;4979979;28;20029;-86
2023/09/16 04:18:31;;;;;;;27.85;25.30;;;;;;;17.54;100.00;95657.69;4976564;28;20029;-88
2023/09/16 04:20:56;;;;;;;27.90;25.50;;;;;;;17.58;100.00;95650.28;4963590;28;20041;-86
2023/09/16 04:23:22;;;;;;;28.83;26.23;;;;;;;17.68;100.00;95648.09;4961194;28;20560;-84
2023/09/16 04:25:57;;;;;;;26.80;24.10;;;;;;;17.65;100.00;95641.47;4958612;28;21745;-86
2023/09/16 04:28:26;;;;;;;28.25;25.75;;;;;;;17.60;100.00;95637.78;4957805;28;20582;-86
2023/09/16 04:30:53;;;;;;;30.75;27.77;;;;;;;17.66;100.00;95658.00;4952623;28;20563;-85
2023/09/16 04:33:19;;;;;;;29.52;26.92;;;;;;;17.72;100.00;95655.38;4952054;28;20069;-85
2023/09/16 04:35:45;;;;;;;29.33;26.38;;;;;;;17.79;100.00;95660.63;4961522;28;20030;-83
2023/09/16 04:38:12;;;;;;;29.08;26.48;;;;;;;17.83;100.00;95662.66;4961766;28;20137;-81
2023/09/16 04:40:38;;;;;;;31.77;28.67;;;;;;;17.89;100.00;95676.78;4961832;28;20656;-85
2023/09/16 04:43:04;;;;;;;32.13;28.88;;;;;;;17.69;100.00;95668.84;4961688;28;20037;-88
2023/09/16 04:45:29;;;;;;;31.63;28.23;;;;;;;17.47;100.00;95690.09;4962998;28;20105;-84
2023/09/16 04:47:56;;;;;;;35.85;32.13;;;;;;;17.36;100.00;95700.16;4973684;28;20069;-86
2023/09/16 04:50:22;;;;;;;34.60;31.15;;;;;;;17.51;100.00;95725.38;4962328;28;20034;-86
2023/09/16 04:52:48;;;;;;;30.90;27.92;;;;;;;17.67;100.00;95727.72;4959191;28;20039;-84
2023/09/16 04:55:14;;;;;;;33.45;30.25;;;;;;;17.77;100.00;95736.03;4957794;28;20036;-85
2023/09/16 04:57:40;;;;;;;30.75;27.67;;;;;;;17.77;100.00;95731.59;4961036;28;20431;-84
2023/09/16 05:00:06;;;;;;;34.92;31.45;;;;;;;17.78;100.00;95727.16;4961345;28;20038;-83
2023/09/16 05:02:33;;;;;;;33.97;30.98;;;;;;;17.80;100.00;95714.66;4961465;28;20120;-84
2023/09/16 05:04:59;;;;;;;37.33;33.92;;;;;;;17.79;100.00;95726.97;4958856;28;20048;-85
2023/09/16 05:07:24;;;;;;;33.33;29.92;;;;;;;17.78;100.00;95735.84;4961236;28;20035;-85
2023/09/16 05:09:50;;;;;;;34.80;31.48;;;;;;;17.82;100.00;95733.63;4962709;28;20161;-89
2023/09/16 05:12:15;;;;;;;39.50;35.33;;;;;;;17.78;100.00;95735.03;4976909;28;20023;-89
2023/09/16 05:14:41;;;;;;;35.40;31.85;;;;;;;17.66;100.00;95736.59;4961547;28;20566;-88
2023/09/16 05:17:06;;;;;;;37.08;33.58;;;;;;;17.69;100.00;95751.94;4951652;28;20039;-86
2023/09/16 05:19:31;;;;;;;34.78;31.08;;;;;;;17.64;100.00;95746.44;4961658;28;20019;-87
2023/09/16 05:21:57;;;;;;;37.95;34.28;;;;;;;17.60;100.00;95763.53;4959859;28;20031;-87
2023/09/16 05:24:22;;;;;;;32.30;29.40;;;;;;;17.76;100.00;95769.28;4972873;28;20784;-86
2023/09/16 05:26:48;;;;;;;35.88;32.72;;;;;;;17.79;100.00;95768.06;4958513;28;20069;-86
2023/09/16 05:29:13;;;;;;;33.20;30.15;;;;;;;17.83;100.00;95762.25;4959958;28;20030;-86
2023/09/16 05:31:38;;;;;;;34.08;31.00;;;;;;;17.81;100.00;95756.41;4959484;28;20037;-87
2023/09/16 05:34:04;;;;;;;35.97;32.28;;;;;;;17.85;100.00;95762.09;4959910;28;20033;-87
2023/09/16 05:36:29;;;;;;;33.30;30.40;;;;;;;17.90;100.00;95768.34;4963488;28;20374;-86
2023/09/16 05:38:55;;;;;;;34.83;31.60;;;;;;;17.88;100.00;95780.03;4945044;28;20456;-86
2023/09/16 05:41:20;;;;;;;33.42;30.15;;;;;;;17.76;100.00;95773.72;4963608;28;20492;-87
2023/09/16 05:43:46;;;;;;;35.05;31.52;;;;;;;17.81;100.00;95777.38;4963024;28;20029;-86
2023/09/16 05:46:12;;;;;;;33.20;29.83;;;;;;;17.84;100.00;95784.03;4971203;28;20045;-86
2023/09/16 05:48:37;;;;;;;35.22;31.92;;;;;;;17.86;100.00;95785.47;4969066;28;20034;-87
2023/09/16 05:51:04;;;;;;;33.40;30.10;;;;;;;17.85;100.00;95773.34;4963997;28;20026;-88
2023/09/16 05:53:32;;;;;;;33.00;30.13;;;;;;;17.95;100.00;95772.97;4962721;28;20033;-86
2023/09/16 05:55:57;;;;;;;37.95;34.35;;;;;;;17.69;100.00;95786.78;4966677;28;20129;-88
2023/09/16 05:58:22;;;;;;;52.15;46.97;;;;;;;17.68;100.00;95797.47;4974007;28;20031;-88
2023/09/16 06:00:57;;;;;;;53.47;48.08;;;;;;;17.66;100.00;95808.13;4963905;28;20031;-88
2023/09/16 06:03:23;;;;;;;39.60;36.08;;;;;;;17.74;100.00;95822.91;4964621;28;20483;-88
2023/09/16 06:05:48;;;;;;;45.65;41.25;;;;;;;17.76;100.00;95833.97;4963993;28;20035;-88
2023/09/16 06:08:14;;;;;;;34.28;31.23;;;;;;;17.87;100.00;95833.44;4977056;28;20535;-88
2023/09/16 06:10:40;;;;;;;34.33;31.13;;;;;;;17.82;100.00;95839.25;4963089;28;20031;-88
2023/09/16 06:13:05;;;;;;;36.58;33.40;;;;;;;18.02;100.00;95838.56;4963371;28;20022;-87
2023/09/16 06:15:30;;;;;;;37.28;33.95;;;;;;;17.94;100.00;95844.78;4963053;28;20054;-90
2023/09/16 06:17:56;;;;;;;38.42;34.65;;;;;;;17.91;100.00;95839.94;4964449;28;20142;-90
2023/09/16 06:20:21;;;;;;;36.85;33.13;;;;;;;17.99;100.00;95844.19;4964396;28;20502;-90
2023/09/16 06:22:47;;;;;;;34.83;31.75;;;;;;;18.02;100.00;95841.19;4950262;28;20449;-88
2023/09/16 06:25:12;;;;;;;43.58;39.45;;;;;;;17.94;100.00;95851.84;4963608;28;20057;-91
2023/09/16 06:27:37;;;;;;;38.60;35.05;;;;;;;18.02;100.00;95839.38;4963445;28;20034;-87
2023/09/16 06:30:03;;;;;;;32.70;29.58;;;;;;;18.17;100.00;95845.28;4963166;28;20027;-88
2023/09/16 06:32:28;;;;;;;32.17;29.27;;;;;;;18.02;100.00;95830.69;4972978;28;20558;-88
2023/09/16 06:34:54;;;;;;;37.78;34.22;;;;;;;18.04;100.00;95840.00;4979271;28;20076;-86
2023/09/16 06:37:19;;;;;;;35.60;32.33;;;;;;;18.17;100.00;95850.53;4962523;28;20440;-85
2023/09/16 06:39:46;;;;;;;31.10;28.10;;;;;;;18.22;100.00;95853.38;4962710;28;20089;-86
2023/09/16 06:42:11;;;;;;;35.25;31.60;;;;;;;18.17;100.00;95855.78;4962607;28;20092;-86
2023/09/16 06:44:37;;;;;;;44.38;40.13;;;;;;;18.17;100.00;95853.16;4961718;28;20113;-85
2023/09/16 06:47:02;;;;;;;30.42;27.60;;;;;;;18.21;100.00;95858.81;4974928;28;20077;-85
2023/09/16 06:49:28;;;;;;;32.90;29.90;;;;;;;18.06;100.00;95871.25;4961425;28;20566;-86
2023/09/16 06:51:53;;;;;;;34.72;31.48;;;;;;;18.17;100.00;95873.34;4974588;28;20034;-87
2023/09/16 06:54:19;;;;;;;47.10;42.75;;;;;;;18.00;100.00;95875.47;4963800;28;20074;-87
2023/09/16 06:56:44;;;;;;;46.28;41.30;;;;;;;17.85;100.00;95880.03;4963219;28;20106;-89
2023/09/16 06:59:09;;;;;;;51.33;46.13;;;;;;;17.84;100.00;95887.06;4963774;28;20030;-90
2023/09/16 07:01:35;;;;;;;33.33;30.25;;;;;;;17.87;100.00;95897.19;4963736;28;20046;-91
2023/09/16 07:04:00;;;;;;;35.10;31.83;;;;;;;17.96;100.00;95905.69;4963401;28;20621;-91
2023/09/16 07:06:26;;;;;;;37.70;33.90;;;;;;;18.09;100.00;95900.53;4945995;28;20389;-90
2023/09/16 07:08:51;;;;;;;42.58;38.22;;;;;;;18.02;100.00;95883.94;4952432;28;20441;-94
2023/09/16 07:11:17;;;;;;;39.13;35.47;;;;;;;17.92;100.00;95865.13;4961831;28;20030;-94
2023/09/16 07:13:43;;;;;;;40.83;36.63;;;;;;;17.77;100.00;95819.88;4964193;28;20034;-93
2023/09/16 07:16:11;;;;;;;37.47;33.90;;;;;;;17.67;100.00;95801.06;4963257;28;20076;-92
2023/09/16 07:18:36;;;;;;;43.95;39.58;;;;;;;17.65;100.00;95796.03;4972001;28;20416;-94
2023/09/16 07:21:02;;;;;;;36.67;33.15;;;;;;;17.73;100.00;95826.50;4969614;28;20400;-92
2023/09/16 07:23:27;;;;;;;35.22;31.73;;;;;;;18.03;100.00;95864.59;4963565;28;20397;-91
2023/09/16 07:25:57;;;;;;;34.40;30.85;;;;;;;18.09;100.00;95871.69;4963178;28;20033;-87
2023/09/16 07:28:24;;;;;;;43.95;39.70;;;;;;;18.08;100.00;95877.91;4979428;28;20065;-88
2023/09/16 07:30:49;;;;;;;35.08;31.98;;;;;;;18.13;100.00;95890.47;4981829;28;20042;-85
2023/09/16 07:33:14;;;;;;;40.65;36.65;;;;;;;18.21;100.00;95903.41;4963892;28;20019;-84
2023/09/16 07:35:40;;;;;;;32.45;29.25;;;;;;;18.34;100.00;95909.53;4960995;28;20074;-84
2023/09/16 07:38:05;;;;;;;34.38;31.17;;;;;;;18.52;100.00;95910.84;4961144;28;20031;-83
2023/09/16 07:40:32;;;;;;;33.03;29.95;;;;;;;18.59;100.00;95909.84;4960090;28;20035;-84
2023/09/16 07:42:58;;;;;;;44.97;40.80;;;;;;;18.76;100.00;95908.50;4961275;28;20026;-83
2023/09/16 07:45:23;;;;;;;50.38;45.42;;;;;;;18.85;100.00;95917.00;4965105;28;20029;-84
2023/09/16 07:47:49;;;;;;;43.95;39.72;;;;;;;18.97;100.00;95915.44;4973883;28;20034;-83
2023/09/16 07:50:14;;;;;;;37.42;34.22;;;;;;;19.02;100.00;95897.25;4960274;28;20030;-81
2023/09/16 07:52:40;;;;;;;41.80;37.90;;;;;;;19.13;100.00;95880.13;4960877;28;20034;-83
2023/09/16 07:55:07;;;;;;;31.85;29.02;;;;;;;19.35;100.00;95839.50;4960535;28;20110;-82
2023/09/16 07:57:33;;;;;;;31.00;28.13;;;;;;;19.32;100.00;95776.84;4959894;28;20519;-81
2023/09/16 07:59:58;;;;;;;26.02;23.88;;;;;;;19.63;100.00;95729.72;4961144;28;20595;-81
2023/09/16 08:02:24;;;;;;;27.88;25.48;;;;;;;19.19;100.00;95684.94;4959786;28;20043;-83
2023/09/16 08:04:49;;;;;;;25.13;22.77;;;;;;;19.78;100.00;95674.22;4960771;28;20089;-82
2023/09/16 08:07:15;;;;;;;25.95;23.65;;;;;;;20.43;100.00;95628.31;4960093;28;20031;-82
2023/09/16 08:09:40;;;;;;;24.73;22.60;;;;;;;20.93;100.00;95545.59;4960865;28;20395;-83
2023/09/16 08:12:05;;;;;;;22.77;20.42;;;;;;;21.16;100.00;95529.13;4960721;28;20019;-82
2023/09/16 08:14:31;;;;;;;17.80;16.08;;;;;;;22.08;100.00;95442.63;4960584;28;20432;-83
2023/09/16 08:17:02;;;;;;;16.77;15.07;;;;;;;22.85;100.00;95367.41;4960398;28;20055;-82
2023/09/16 08:19:28;;;;;;;16.15;15.00;;;;;;;22.80;100.00;95378.66;4959843;28;20140;-80
2023/09/16 08:21:53;;;;;;;13.35;11.95;;;;;;;22.52;100.00;95337.19;4960675;28;20484;-84
2023/09/16 08:24:19;;;;;;;12.48;11.38;;;;;;;22.52;100.00;95321.34;4959939;28;20137;-82
2023/09/16 08:26:44;;;;;;;11.23;10.32;;;;;;;22.42;100.00;95328.25;4974333;28;20034;-83
2023/09/16 08:29:10;;;;;;;12.23;11.02;;;;;;;22.22;100.00;95333.16;4960444;28;20031;-81
2023/09/16 08:31:35;;;;;;;13.73;12.27;;;;;;;22.77;100.00;95336.88;4960127;28;20089;-79
2023/09/16 08:34:03;;;;;;;11.60;10.10;;;;;;;22.45;100.00;95327.78;4960403;28;20113;-84
2023/09/16 08:36:29;;;;;;;10.02;9.40;;;;;;;22.34;100.00;95328.63;4960477;28;20042;-89
2023/09/16 08:38:54;;;;;;;11.82;10.85;;;;;;;22.26;100.00;95343.00;4960451;28;20030;-86
2023/09/16 08:41:33;;;;;;;10.45;9.52;;;;;;;22.12;100.00;95344.31;4960565;28;20536;-82
2023/09/16 08:44:00;;;;;;;9.88;8.90;;;;;;;21.96;100.00;95323.91;4943112;28;20062;-83
2023/09/16 08:46:28;;;;;;;11.77;10.55;;;;;;;22.05;100.00;95359.44;4947828;28;20199;-81
2023/09/16 08:48:55;;;;;;;11.90;10.88;;;;;;;22.23;100.00;95375.13;4959823;28;20117;-82
2023/09/16 08:51:21;;;;;;;10.63;9.80;;;;;;;21.74;100.00;95363.19;4961403;28;20118;-83
2023/09/16 08:53:47;;;;;;;10.00;9.07;;;;;;;22.24;100.00;95347.72;4959652;28;20161;-82
2023/09/16 08:56:13;;;;;;;10.55;9.65;;;;;;;22.62;100.00;95341.84;4930108;28;20042;-81
2023/09/16 08:58:39;;;;;;;10.05;9.20;;;;;;;22.40;100.00;95354.09;4943801;28;20340;-82
2023/09/16 09:01:05;;;;;;;10.57;9.80;;;;;;;22.82;100.00;95352.84;4961838;28;20042;-80
2023/09/16 09:03:32;;;;;;;10.18;9.48;;;;;;;23.38;100.00;95322.03;4943446;28;20614;-81
2023/09/16 09:05:58;;;;;;;8.93;8.23;;;;;;;22.70;100.00;95315.06;4944198;28;20683;-80
2023/09/16 09:08:23;;;;;;;10.63;9.73;;;;;;;22.77;100.00;95321.03;4944453;28;20445;-82
2023/09/16 09:10:49;;;;;;;9.77;8.95;;;;;;;22.31;100.00;95319.34;4960746;28;20038;-81
2023/09/16 09:13:15;;;;;;;11.30;10.30;;;;;;;22.48;100.00;95332.59;4966314;28;20439;-82
2023/09/16 09:15:42;;;;;;;11.50;10.70;;;;;;;22.84;100.00;95342.00;4961449;28;20050;-84
2023/09/16 09:18:08;;;;;;;8.85;8.18;;;;;;;22.41;100.00;95324.81;4974157;28;20037;-85
2023/09/16 09:20:34;;;;;;;9.90;9.02;;;;;;;22.55;100.00;95323.50;4943077;28;20039;-83
2023/09/16 09:22:59;;;;;;;11.18;10.38;;;;;;;22.79;100.00;95320.78;4961936;28;20163;-83
2023/09/16 09:25:27;;;;;;;9.90;9.02;;;;;;;22.87;100.00;95317.75;4960878;28;20034;-82
2023/09/16 09:27:56;;;;;;;10.68;9.88;;;;;;;23.26;100.00;95318.69;4963202;28;20049;-84
2023/09/16 09:30:28;;;;;;;11.68;10.70;;;;;;;23.34;100.00;95308.50;4972418;28;20413;-86
2023/09/16 09:32:57;;;;;;;10.82;9.95;;;;;;;22.98;100.00;95309.78;4960989;28;20129;-85
2023/09/16 09:35:27;;;;;;;10.63;9.88;;;;;;;23.05;100.00;95312.28;4962881;28;20069;-84
2023/09/16 09:37:53;;;;;;;11.48;10.57;;;;;;;23.50;100.00;95320.94;4960466;28;20532;-84
2023/09/16 09:40:19;;;;;;;11.38;10.68;;;;;;;24.07;100.00;95325.97;4960522;28;20105;-83
2023/09/16 09:42:46;;;;;;;23.73;21.85;;;;;;;24.93;100.00;95305.81;4961049;28;20126;-86
2023/09/16 09:45:13;;;;;;;12.40;11.50;;;;;;;24.49;100.00;95292.63;4961754;28;20591;-85
2023/09/16 09:47:39;;;;;;;10.05;9.23;;;;;;;24.17;100.00;95297.03;4961208;28;20078;-86
2023/09/16 09:50:07;;;;;;;9.98;9.25;;;;;;;24.29;100.00;95296.88;4944302;28;20119;-85
2023/09/16 09:52:32;;;;;;;9.60;8.85;;;;;;;23.99;100.00;95287.50;4961823;28;20505;-84
2023/09/16 09:54:58;;;;;;;8.85;8.07;;;;;;;23.19;100.00;95291.59;4960777;28;20385;-83
2023/09/16 09:57:25;;;;;;;14.07;9.52;;;;;;;23.75;100.00;95286.13;4944375;28;20489;-84
2023/09/16 09:59:50;;;;;;;8.77;7.40;;;;;;;24.47;100.00;95276.16;4959430;28;20031;-84
2023/09/16 10:02:16;;;;;;;8.88;7.97;;;;;;;25.60;100.00;95269.75;4960837;28;20054;-85
2023/09/16 10:04:41;;;;;;;8.52;7.63;;;;;;;24.74;100.00;95254.97;4960871;28;20045;-82
2023/09/16 10:07:07;;;;;;;9.63;8.48;;;;;;;24.19;100.00;95262.34;4961958;28;20400;-84
2023/09/16 10:09:33;;;;;;;9.73;8.93;;;;;;;24.16;100.00;95263.63;4964554;28;20066;-85
2023/09/16 10:11:59;;;;;;;8.20;7.50;;;;;;;25.34;100.00;95257.34;4971033;28;20113;-84
2023/09/16 10:14:25;;;;;;;8.93;6.97;;;;;;;24.03;100.00;95248.91;4943584;28;20034;-85
2023/09/16 10:16:52;;;;;;;9.73;8.93;;;;;;;24.39;100.00;95251.97;4960814;28;20027;-85
2023/09/16 10:19:17;;;;;;;10.30;8.02;;;;;;;23.67;100.00;95253.97;4944010;28;20045;-88
2023/09/16 10:21:42;;;;;;;7.90;7.18;;;;;;;23.50;100.00;95254.81;4962980;28;20035;-85
2023/09/16 10:24:08;;;;;;;8.00;7.45;;;;;;;24.02;100.00;95252.59;4965086;28;20029;-83
2023/09/16 10:26:34;;;;;;;8.73;7.97;;;;;;;24.03;100.00;95256.03;4960836;28;20027;-83
2023/09/16 10:29:00;;;;;;;7.82;7.22;;;;;;;23.32;100.00;95252.41;4953892;28;20037;-87
2023/09/16 10:31:26;;;;;;;13.90;8.15;;;;;;;23.49;100.00;95247.13;4947056;28;20579;-83
2023/09/16 10:33:52;;;;;;;8.50;7.80;;;;;;;24.65;100.00;95243.25;4946788;28;20038;-89
2023/09/16 10:36:20;;;;;;;11.05;10.13;;;;;;;25.09;100.00;95234.09;4966531;28;20026;-85
2023/09/16 10:38:47;;;;;;;8.27;7.78;;;;;;;25.15;100.00;95237.59;4964179;28;20465;-84
2023/09/16 10:41:15;;;;;;;8.15;7.35;;;;;;;23.97;100.00;95238.50;4964197;28;20034;-84
2023/09/16 10:43:42;;;;;;;7.97;7.38;;;;;;;24.36;100.00;95231.28;4963978;28;20026;-85
2023/09/16 10:46:09;;;;;;;9.52;8.75;;;;;;;24.60;100.00;95236.03;4953236;28;20040;-85
2023/09/16 10:48:34;;;;;;;8.25;7.55;;;;;;;24.24;100.00;95225.34;4953967;28;20031;-83
2023/09/16 10:51:01;;;;;;;7.60;6.80;;;;;;;25.17;100.00;95238.16;4963347;28;20101;-85
2023/09/16 10:53:29;;;;;;;8.57;7.72;;;;;;;25.23;100.00;95225.72;4947496;28;20058;-83
2023/09/16 10:56:03;;;;;;;7.30;6.70;;;;;;;24.50;100.00;95220.03;4945530;28;20051;-86
2023/09/16 10:58:30;;;;;;;7.30;6.80;;;;;;;24.51;100.00;95220.84;4963654;28;20039;-85
2023/09/16 11:00:58;;;;;;;8.95;8.10;;;;;;;25.39;100.00;95217.59;4946223;28;20042;-84
2023/09/16 11:03:30;;;;;;;7.63;7.03;;;;;;;25.37;100.00;95217.03;4946854;28;20026;-84
2023/09/16 11:05:57;;;;;;;7.22;6.68;;;;;;;25.07;100.00;95208.91;4947057;28;20019;-85
2023/09/16 11:08:24;;;;;;;7.78;7.18;;;;;;;24.96;100.00;95207.22;4946843;28;20045;-86